Terminal Aerodrome Forecast
Issued by NWS Jackson, MS

Home | Current Version | Previous Version | Text Only | Print | Product List | Glossary On
Versions: 1 2 3 4 5 6 7 8 9 10 11 12
251
FTUS44 KJAN 110520
TAFHBG
TAF
KHBG 110520Z 1106/1206 16004KT P6SM SCT250
     FM120000 16005KT P6SM OVC050
     FM120200 16005KT P6SM OVC025
     FM120300 16005KT P6SM OVC007=

USA.gov is the U.S. government's official web portal to all federal, state and local government web resources and services.